Time,TemperatureF,DewpointF,PressureIn,WindDirection,WindDirectionDegrees,WindSpeedMPH,WindSpeedGustMPH,Humidity,HourlyPrecipIn,Conditions,Clouds,dailyrainin,SoftwareType,DateUTC
2013-03-31 00:22:00,69.0,42.0,29.92,NW,310,26.0,36.0,37,0.00,,,-99.99,,2013-03-31 07:22:00,
2013-03-31 00:32:00,69.0,42.0,29.92,NW,310,26.0,36.0,37,0.00,,,-99.99,,2013-03-31 07:32:00,
2013-03-31 00:42:00,69.0,38.0,29.92,NW,310,20.0,32.0,32,0.00,,,-99.99,,2013-03-31 07:42:00,
2013-03-31 01:22:00,69.0,38.0,29.92,NW,310,20.0,32.0,32,0.00,,,-99.99,,2013-03-31 08:22:00,
2013-03-31 01:32:00,69.0,38.0,29.92,NW,310,20.0,32.0,32,0.00,,,-99.99,,2013-03-31 08:32:00,
2013-03-31 01:42:00,68.0,35.0,29.91,NW,310,24.0,32.0,29,0.00,,,-99.99,,2013-03-31 08:42:00,
2013-03-31 02:22:00,68.0,35.0,29.91,NW,310,24.0,32.0,29,0.00,,,-99.99,,2013-03-31 09:22:00,
2013-03-31 02:32:00,68.0,35.0,29.91,NW,310,24.0,32.0,29,0.00,,,-99.99,,2013-03-31 09:32:00,
2013-03-31 03:23:00,68.0,32.0,29.90,NW,320,24.0,33.0,26,0.00,,,-99.99,,2013-03-31 10:23:00,
2013-03-31 03:32:00,68.0,32.0,29.90,NW,320,24.0,33.0,26,0.00,,,-99.99,,2013-03-31 10:32:00,
2013-03-31 03:42:00,68.0,33.0,29.90,NW,320,16.0,37.0,27,0.00,,,-99.99,,2013-03-31 10:42:00,
2013-03-31 04:23:00,68.0,33.0,29.90,NW,320,16.0,37.0,27,0.00,,,-99.99,,2013-03-31 11:23:00,
2013-03-31 04:32:00,68.0,33.0,29.90,NW,320,16.0,37.0,27,0.00,,,-99.99,,2013-03-31 11:32:00,
2013-03-31 04:42:00,67.0,32.0,29.91,NW,310,21.0,38.0,27,0.00,,,-99.99,,2013-03-31 11:42:00,
2013-03-31 05:22:00,67.0,32.0,29.91,NW,310,21.0,38.0,27,0.00,,,-99.99,,2013-03-31 12:22:00,
2013-03-31 05:32:00,67.0,32.0,29.91,NW,310,21.0,38.0,27,0.00,,,-99.99,,2013-03-31 12:32:00,
2013-03-31 05:42:00,68.0,35.0,29.91,NW,310,35.0,42.0,29,0.00,,,-99.99,,2013-03-31 12:42:00,
2013-03-31 06:22:00,68.0,35.0,29.91,NW,310,35.0,42.0,29,0.00,,,-99.99,,2013-03-31 13:22:00,
2013-03-31 06:32:00,68.0,35.0,29.91,NW,310,35.0,42.0,29,0.00,,,-99.99,,2013-03-31 13:32:00,
2013-03-31 07:22:00,67.0,39.0,29.92,NW,320,23.0,32.0,36,0.00,,,-99.99,,2013-03-31 14:22:00,
2013-03-31 07:32:00,67.0,39.0,29.92,NW,320,23.0,32.0,36,0.00,,,-99.99,,2013-03-31 14:32:00,
2013-03-31 07:42:00,67.0,39.0,29.92,NW,320,23.0,32.0,36,0.00,,,-99.99,,2013-03-31 14:42:00,
2013-03-31 07:43:00,68.0,41.0,29.94,NW,320,10.0,23.0,38,0.00,,,-99.99,,2013-03-31 14:43:00,
2013-03-31 08:22:00,68.0,41.0,29.94,NW,320,10.0,23.0,38,0.00,,,-99.99,,2013-03-31 15:22:00,
2013-03-31 08:33:00,68.0,41.0,29.94,NW,320,10.0,23.0,38,0.00,,,-99.99,,2013-03-31 15:33:00,
2013-03-31 09:22:00,70.0,43.0,29.94,NW,310,13.0,48.0,37,0.00,,,-99.99,,2013-03-31 16:22:00,
2013-03-31 09:33:00,70.0,43.0,29.94,NW,310,13.0,48.0,37,0.00,,,-99.99,,2013-03-31 16:33:00,
2013-03-31 09:42:00,70.0,43.0,29.94,NW,310,13.0,48.0,37,0.00,,,-99.99,,2013-03-31 16:42:00,
2013-03-31 10:22:00,71.0,43.0,29.95,NW,310,33.0,48.0,36,0.00,,,-99.99,,2013-03-31 17:22:00,
2013-03-31 10:32:00,71.0,43.0,29.95,NW,310,33.0,48.0,36,0.00,,,-99.99,,2013-03-31 17:32:00,
2013-03-31 10:42:00,71.0,43.0,29.95,NW,310,33.0,48.0,36,0.00,,,-99.99,,2013-03-31 17:42:00,
2013-03-31 11:22:00,74.0,42.0,29.95,NW,310,28.0,40.0,32,0.00,,,-99.99,,2013-03-31 18:22:00,
2013-03-31 11:32:00,74.0,42.0,29.95,NW,310,28.0,40.0,32,0.00,,,-99.99,,2013-03-31 18:32:00,
2013-03-31 11:42:00,74.0,42.0,29.95,NW,310,28.0,40.0,32,0.00,,,-99.99,,2013-03-31 18:42:00,
2013-03-31 12:22:00,77.0,39.0,29.95,WNW,300,32.0,50.0,26,0.00,,,-99.99,,2013-03-31 19:22:00,
2013-03-31 12:32:00,77.0,39.0,29.95,WNW,300,32.0,50.0,26,0.00,,,-99.99,,2013-03-31 19:32:00,
2013-03-31 12:42:00,77.0,39.0,29.95,WNW,300,32.0,50.0,26,0.00,,,-99.99,,2013-03-31 19:42:00,
2013-03-31 13:22:00,78.0,38.0,29.94,WNW,300,14.0,40.0,24,0.00,,,-99.99,,2013-03-31 20:22:00,
2013-03-31 13:33:00,78.0,38.0,29.94,WNW,300,14.0,40.0,24,0.00,,,-99.99,,2013-03-31 20:33:00,
2013-03-31 13:42:00,78.0,38.0,29.94,WNW,300,14.0,40.0,24,0.00,,,-99.99,,2013-03-31 20:42:00,
2013-03-31 13:43:00,79.0,38.0,29.91,WNW,300,11.0,31.0,23,0.00,,,-99.99,,2013-03-31 20:43:00,
2013-03-31 14:22:00,79.0,38.0,29.91,WNW,300,11.0,31.0,23,0.00,,,-99.99,,2013-03-31 21:22:00,
2013-03-31 14:33:00,79.0,38.0,29.91,WNW,300,11.0,31.0,23,0.00,,,-99.99,,2013-03-31 21:33:00,
2013-03-31 15:23:00,79.0,43.0,29.88,WNW,300,50.0,50.0,28,0.00,,,-99.99,,2013-03-31 22:23:00,
2013-03-31 15:33:00,79.0,43.0,29.88,WNW,300,50.0,50.0,28,0.00,,,-99.99,,2013-03-31 22:33:00,
2013-03-31 15:42:00,79.0,43.0,29.88,WNW,300,50.0,50.0,28,0.00,,,-99.99,,2013-03-31 22:42:00,
2013-03-31 16:22:00,78.0,43.0,29.87,WNW,300,44.0,52.0,29,0.00,,,-99.99,,2013-03-31 23:22:00,
2013-03-31 16:32:00,78.0,43.0,29.87,WNW,300,44.0,52.0,29,0.00,,,-99.99,,2013-03-31 23:32:00,
2013-03-31 16:42:00,78.0,43.0,29.87,WNW,300,44.0,52.0,29,0.00,,,-99.99,,2013-03-31 23:42:00,
2013-03-31 18:22:00,75.0,45.0,29.86,NW,310,26.0,46.0,35,0.00,,,-99.99,,2013-04-01 01:22:00,
2013-03-31 18:32:00,75.0,45.0,29.86,NW,310,26.0,46.0,35,0.00,,,-99.99,,2013-04-01 01:32:00,
2013-03-31 18:42:00,75.0,45.0,29.86,NW,310,26.0,46.0,35,0.00,,,-99.99,,2013-04-01 01:42:00,
2013-03-31 19:22:00,71.0,47.0,29.86,NW,310,25.0,46.0,43,0.00,,,-99.99,,2013-04-01 02:22:00,
2013-03-31 19:32:00,71.0,47.0,29.86,NW,310,25.0,46.0,43,0.00,,,-99.99,,2013-04-01 02:32:00,
2013-03-31 19:42:00,71.0,47.0,29.86,NW,310,25.0,46.0,43,0.00,,,-99.99,,2013-04-01 02:42:00,
2013-03-31 19:43:00,68.0,48.0,29.89,NW,310,39.0,50.0,49,0.00,,,-99.99,,2013-04-01 02:43:00,
2013-03-31 20:22:00,68.0,48.0,29.89,NW,310,39.0,50.0,49,0.00,,,-99.99,,2013-04-01 03:22:00,
2013-03-31 20:33:00,68.0,48.0,29.89,NW,310,39.0,50.0,49,0.00,,,-99.99,,2013-04-01 03:33:00,
2013-03-31 20:43:00,65.0,48.0,29.90,NW,320,42.0,53.0,54,0.00,,,-99.99,,2013-04-01 03:43:00,
2013-03-31 21:23:00,65.0,48.0,29.90,NW,320,42.0,53.0,54,0.00,,,-99.99,,2013-04-01 04:23:00,
2013-03-31 21:32:00,65.0,48.0,29.90,NW,320,42.0,53.0,54,0.00,,,-99.99,,2013-04-01 04:32:00,
2013-03-31 22:22:00,63.0,45.0,29.92,NW,310,65.0,65.0,52,0.00,,,-99.99,,2013-04-01 05:22:00,
2013-03-31 22:32:00,63.0,45.0,29.92,NW,310,65.0,65.0,52,0.00,,,-99.99,,2013-04-01 05:32:00,
2013-03-31 22:42:00,63.0,45.0,29.92,NW,310,65.0,65.0,52,0.00,,,-99.99,,2013-04-01 05:42:00,
2013-03-31 23:22:00,62.0,45.0,29.93,NW,310,46.0,54.0,53,0.00,,,-99.99,,2013-04-01 06:22:00,
2013-03-31 23:33:00,62.0,45.0,29.93,NW,310,46.0,54.0,53,0.00,,,-99.99,,2013-04-01 06:33:00,
2013-03-31 23:42:00,62.0,45.0,29.93,NW,310,46.0,54.0,53,0.00,,,-99.99,,2013-04-01 06:42:00,